Impacts TAF Board INFO
FOR SITUATIONAL AWARENESS. NOT TO BE USED FOR FLIGHT PLANNING PURPOSES.
IDs:

KCLE - Cleveland/Hopkins In, OH, US

Issued at 1137 UTC 24 Feb 2018
Updated at 1404 UTC 24 Feb 2018
Potential Impact None Slight Moderate High
Time1351Z 24/15Z 24/16Z 24/17Z 24/18Z 24/19Z 24/20Z 24/21Z 24/22Z 24/23Z 25/00Z 25/01Z 25/02Z 25/03Z>>
Type OBS PRVL PRVL PRVL PRVL PRVL PRVL PRVL PRVL PRVL PRVL PRVL PRVL PRVL
VIS 9 6 6 6 6 >6 >6 >6 >6 >6 >6 >6 >6 >6
CIG 16 12 12 12 12 25 25 25 25 15 15 15 15 15
Cover OVC OVC OVC OVC OVC OVC OVC OVC OVC OVC OVC OVC OVC OVC
FltCat MVFR MVFR MVFR MVFR MVFR MVFR MVFR MVFR MVFR MVFR MVFR MVFR MVFR MVFR
WX -RA -RA -RA -RA -RA VCSH VCSH VCSH VCSH -RA -RA -RA -RA -RA
WDir 60 40 40 40 40 70 70 70 70 80 80 80 80 80
WSpd 9 12 12 12 12 10 10 10 10 10 10 10 10 10
WGst -- -- -- -- -- -- -- -- -- -- -- -- -- --

Raw TAF
KCLE 241137Z 2412/2518 04012KT 6SM -RA SCT009 OVC012
  FM241900 07010KT P6SM VCSH SCT015 OVC025
  FM242300 08010KT P6SM -RA OVC015
  FM250600 17015G25KT 3SM -RA BR OVC005
  FM251000 21015G28KT P6SM BKN010 OVC025
  FM251300 23015G30KT P6SM BKN035


Raw METAR
KCLE 241351Z 06009KT 9SM -RA BKN016 OVC040 03/02 A3024 RMK AO2 SLP243 P0004 T00330017 $
KCLE 241302Z 05012KT 9SM -RA OVC015 03/01 A3024 RMK AO2 P0001 T00330011 $
KCLE 241251Z 04013KT 8SM -RA OVC013 03/01 A3025 RMK AO2 SLP246 P0005 T00280011
KCLE 241151Z 04013KT 6SM -RA BKN012 OVC016 03/02 A3023 RMK AO2 SLP242 P0006 60006 70008 T00330017 10083 20033 55003

METAR Board
Radar Display
Forecast Discussion

FOR SITUATIONAL AWARENESS. NOT TO BE USED FOR FLIGHT PLANNING PURPOSES.